sensor_id;sensor_type;location;lat;lon;timestamp;P1;durP1;ratioP1;P2;durP2;ratioP2
13704;SDS011;6924;52.122;9.952;2023-07-30T00:00:05;1.00;;;0.90;;
13704;SDS011;6924;52.122;9.952;2023-07-30T00:02:32;0.90;;;0.90;;
13704;SDS011;6924;52.122;9.952;2023-07-30T00:04:59;0.97;;;0.87;;
13704;SDS011;6924;52.122;9.952;2023-07-30T00:07:25;1.70;;;0.70;;
13704;SDS011;6924;52.122;9.952;2023-07-30T00:09:52;0.90;;;0.90;;
13704;SDS011;6924;52.122;9.952;2023-07-30T00:12:20;0.90;;;0.90;;
13704;SDS011;6924;52.122;9.952;2023-07-30T00:14:46;1.13;;;1.03;;
13704;SDS011;6924;52.122;9.952;2023-07-30T00:17:12;1.17;;;1.07;;
13704;SDS011;6924;52.122;9.952;2023-07-30T00:19:39;1.10;;;1.00;;
13704;SDS011;6924;52.122;9.952;2023-07-30T00:22:05;1.10;;;1.00;;
13704;SDS011;6924;52.122;9.952;2023-07-30T00:24:32;0.77;;;0.77;;
13704;SDS011;6924;52.122;9.952;2023-07-30T00:26:58;1.10;;;1.00;;
13704;SDS011;6924;52.122;9.952;2023-07-30T00:29:26;1.10;;;1.00;;
13704;SDS011;6924;52.122;9.952;2023-07-30T00:31:53;1.60;;;1.17;;
13704;SDS011;6924;52.122;9.952;2023-07-30T00:34:19;1.10;;;1.00;;
13704;SDS011;6924;52.122;9.952;2023-07-30T00:36:46;1.03;;;0.93;;
13704;SDS011;6924;52.122;9.952;2023-07-30T00:39:12;2.57;;;1.03;;
13704;SDS011;6924;52.122;9.952;2023-07-30T00:41:39;0.90;;;0.90;;
13704;SDS011;6924;52.122;9.952;2023-07-30T00:44:05;3.17;;;1.33;;
13704;SDS011;6924;52.122;9.952;2023-07-30T00:46:33;1.13;;;0.93;;
13704;SDS011;6924;52.122;9.952;2023-07-30T00:49:00;1.00;;;1.00;;
13704;SDS011;6924;52.122;9.952;2023-07-30T00:51:27;1.70;;;1.10;;
13704;SDS011;6924;52.122;9.952;2023-07-30T00:53:55;0.87;;;0.83;;
13704;SDS011;6924;52.122;9.952;2023-07-30T00:56:22;1.03;;;1.00;;
13704;SDS011;6924;52.122;9.952;2023-07-30T00:58:48;1.23;;;1.13;;
13704;SDS011;6924;52.122;9.952;2023-07-30T01:01:15;1.10;;;1.00;;
13704;SDS011;6924;52.122;9.952;2023-07-30T01:03:43;1.90;;;1.13;;
13704;SDS011;6924;52.122;9.952;2023-07-30T01:06:10;1.40;;;1.30;;
13704;SDS011;6924;52.122;9.952;2023-07-30T01:08:37;0.97;;;0.90;;
13704;SDS011;6924;52.122;9.952;2023-07-30T01:11:04;0.90;;;0.90;;
13704;SDS011;6924;52.122;9.952;2023-07-30T01:13:31;1.03;;;1.00;;
13704;SDS011;6924;52.122;9.952;2023-07-30T01:15:59;1.40;;;1.30;;
13704;SDS011;6924;52.122;9.952;2023-07-30T01:18:26;1.47;;;1.37;;
13704;SDS011;6924;52.122;9.952;2023-07-30T01:20:54;1.10;;;1.00;;
13704;SDS011;6924;52.122;9.952;2023-07-30T01:23:24;1.40;;;1.30;;
13704;SDS011;6924;52.122;9.952;2023-07-30T01:25:52;1.03;;;1.03;;
13704;SDS011;6924;52.122;9.952;2023-07-30T01:28:39;1.13;;;0.93;;
13704;SDS011;6924;52.122;9.952;2023-07-30T01:31:12;1.30;;;1.20;;
13704;SDS011;6924;52.122;9.952;2023-07-30T01:33:42;1.20;;;1.10;;
13704;SDS011;6924;52.122;9.952;2023-07-30T01:36:15;1.20;;;0.90;;
13704;SDS011;6924;52.122;9.952;2023-07-30T01:38:42;1.10;;;1.00;;
13704;SDS011;6924;52.122;9.952;2023-07-30T01:41:09;3.63;;;1.00;;
13704;SDS011;6924;52.122;9.952;2023-07-30T01:43:36;1.37;;;1.17;;
13704;SDS011;6924;52.122;9.952;2023-07-30T01:46:03;1.17;;;1.07;;
13704;SDS011;6924;52.122;9.952;2023-07-30T01:48:29;3.37;;;1.40;;
13704;SDS011;6924;52.122;9.952;2023-07-30T01:50:56;1.23;;;0.90;;
13704;SDS011;6924;52.122;9.952;2023-07-30T01:53:24;2.30;;;1.23;;
13704;SDS011;6924;52.122;9.952;2023-07-30T01:55:50;1.67;;;1.57;;
13704;SDS011;6924;52.122;9.952;2023-07-30T01:58:17;1.30;;;1.20;;
13704;SDS011;6924;52.122;9.952;2023-07-30T02:00:43;0.97;;;0.90;;
13704;SDS011;6924;52.122;9.952;2023-07-30T02:03:10;1.90;;;1.10;;
13704;SDS011;6924;52.122;9.952;2023-07-30T02:05:36;2.30;;;1.83;;
13704;SDS011;6924;52.122;9.952;2023-07-30T02:08:03;3.80;;;1.37;;
13704;SDS011;6924;52.122;9.952;2023-07-30T02:10:31;3.07;;;1.27;;
13704;SDS011;6924;52.122;9.952;2023-07-30T02:12:58;3.83;;;1.30;;
13704;SDS011;6924;52.122;9.952;2023-07-30T02:15:25;5.47;;;1.37;;
13704;SDS011;6924;52.122;9.952;2023-07-30T02:17:51;1.07;;;0.83;;
13704;SDS011;6924;52.122;9.952;2023-07-30T02:20:18;1.20;;;1.10;;
13704;SDS011;6924;52.122;9.952;2023-07-30T02:22:44;2.00;;;1.43;;
13704;SDS011;6924;52.122;9.952;2023-07-30T02:25:11;1.50;;;1.13;;
13704;SDS011;6924;52.122;9.952;2023-07-30T02:27:39;1.93;;;1.33;;
13704;SDS011;6924;52.122;9.952;2023-07-30T02:30:06;2.60;;;1.20;;
13704;SDS011;6924;52.122;9.952;2023-07-30T02:32:33;5.60;;;1.63;;
13704;SDS011;6924;52.122;9.952;2023-07-30T02:34:59;1.47;;;1.37;;
13704;SDS011;6924;52.122;9.952;2023-07-30T02:37:26;2.43;;;1.17;;
13704;SDS011;6924;52.122;9.952;2023-07-30T02:39:52;1.37;;;1.17;;
13704;SDS011;6924;52.122;9.952;2023-07-30T02:42:19;1.67;;;1.00;;
13704;SDS011;6924;52.122;9.952;2023-07-30T02:44:46;3.93;;;1.17;;
13704;SDS011;6924;52.122;9.952;2023-07-30T02:47:13;2.33;;;1.20;;
13704;SDS011;6924;52.122;9.952;2023-07-30T02:49:39;1.73;;;1.23;;
13704;SDS011;6924;52.122;9.952;2023-07-30T02:52:06;5.07;;;1.53;;
13704;SDS011;6924;52.122;9.952;2023-07-30T02:54:33;2.80;;;1.43;;
13704;SDS011;6924;52.122;9.952;2023-07-30T02:56:59;1.60;;;1.20;;
13704;SDS011;6924;52.122;9.952;2023-07-30T02:59:26;1.93;;;1.37;;
13704;SDS011;6924;52.122;9.952;2023-07-30T03:01:55;1.93;;;1.33;;
13704;SDS011;6924;52.122;9.952;2023-07-30T03:04:21;1.67;;;1.30;;
13704;SDS011;6924;52.122;9.952;2023-07-30T03:06:48;2.27;;;1.40;;
13704;SDS011;6924;52.122;9.952;2023-07-30T03:09:14;1.60;;;1.50;;
13704;SDS011;6924;52.122;9.952;2023-07-30T03:11:41;3.47;;;1.47;;
13704;SDS011;6924;52.122;9.952;2023-07-30T03:14:07;2.20;;;1.40;;
13704;SDS011;6924;52.122;9.952;2023-07-30T03:16:34;1.53;;;1.40;;
13704;SDS011;6924;52.122;9.952;2023-07-30T03:19:01;1.30;;;1.13;;
13704;SDS011;6924;52.122;9.952;2023-07-30T03:21:28;2.57;;;1.63;;
13704;SDS011;6924;52.122;9.952;2023-07-30T03:23:54;3.27;;;1.50;;
13704;SDS011;6924;52.122;9.952;2023-07-30T03:26:21;1.40;;;1.30;;
13704;SDS011;6924;52.122;9.952;2023-07-30T03:28:47;3.93;;;1.70;;
13704;SDS011;6924;52.122;9.952;2023-07-30T03:31:14;2.17;;;1.70;;
13704;SDS011;6924;52.122;9.952;2023-07-30T03:33:40;2.83;;;1.57;;
13704;SDS011;6924;52.122;9.952;2023-07-30T03:36:10;4.67;;;1.50;;
13704;SDS011;6924;52.122;9.952;2023-07-30T03:38:37;2.90;;;2.17;;
13704;SDS011;6924;52.122;9.952;2023-07-30T03:41:04;1.40;;;1.30;;
13704;SDS011;6924;52.122;9.952;2023-07-30T03:43:30;2.97;;;1.60;;
13704;SDS011;6924;52.122;9.952;2023-07-30T03:45:57;1.77;;;1.60;;
13704;SDS011;6924;52.122;9.952;2023-07-30T03:48:23;2.13;;;1.50;;
13704;SDS011;6924;52.122;9.952;2023-07-30T03:50:50;5.13;;;1.70;;
13704;SDS011;6924;52.122;9.952;2023-07-30T03:53:18;2.03;;;1.37;;
13704;SDS011;6924;52.122;9.952;2023-07-30T03:55:44;2.83;;;2.20;;
13704;SDS011;6924;52.122;9.952;2023-07-30T03:58:11;5.87;;;1.80;;
13704;SDS011;6924;52.122;9.952;2023-07-30T04:00:37;5.20;;;1.83;;
13704;SDS011;6924;52.122;9.952;2023-07-30T04:03:04;2.87;;;1.40;;
13704;SDS011;6924;52.122;9.952;2023-07-30T04:05:31;3.00;;;1.50;;
13704;SDS011;6924;52.122;9.952;2023-07-30T04:07:57;2.73;;;1.40;;
13704;SDS011;6924;52.122;9.952;2023-07-30T04:10:25;2.60;;;1.90;;
13704;SDS011;6924;52.122;9.952;2023-07-30T04:12:51;3.43;;;1.70;;
13704;SDS011;6924;52.122;9.952;2023-07-30T04:15:18;3.20;;;1.60;;
13704;SDS011;6924;52.122;9.952;2023-07-30T04:17:44;4.10;;;1.87;;
13704;SDS011;6924;52.122;9.952;2023-07-30T04:20:11;3.00;;;1.70;;
13704;SDS011;6924;52.122;9.952;2023-07-30T04:22:37;4.37;;;1.97;;
13704;SDS011;6924;52.122;9.952;2023-07-30T04:25:07;4.00;;;1.80;;
13704;SDS011;6924;52.122;9.952;2023-07-30T04:27:37;1.70;;;1.37;;
13704;SDS011;6924;52.122;9.952;2023-07-30T04:30:04;4.20;;;1.37;;
13704;SDS011;6924;52.122;9.952;2023-07-30T04:32:31;4.27;;;1.50;;
13704;SDS011;6924;52.122;9.952;2023-07-30T04:34:57;3.23;;;1.67;;
13704;SDS011;6924;52.122;9.952;2023-07-30T04:37:24;4.10;;;3.70;;
13704;SDS011;6924;52.122;9.952;2023-07-30T04:39:50;2.70;;;2.07;;
13704;SDS011;6924;52.122;9.952;2023-07-30T04:42:17;3.57;;;1.90;;
13704;SDS011;6924;52.122;9.952;2023-07-30T04:44:45;2.23;;;1.83;;
13704;SDS011;6924;52.122;9.952;2023-07-30T04:47:11;6.03;;;2.17;;
13704;SDS011;6924;52.122;9.952;2023-07-30T04:49:38;8.37;;;2.00;;
13704;SDS011;6924;52.122;9.952;2023-07-30T04:52:05;5.97;;;2.57;;
13704;SDS011;6924;52.122;9.952;2023-07-30T04:54:32;4.30;;;3.37;;
13704;SDS011;6924;52.122;9.952;2023-07-30T04:57:01;5.23;;;4.27;;
13704;SDS011;6924;52.122;9.952;2023-07-30T04:59:28;6.33;;;3.43;;
13704;SDS011;6924;52.122;9.952;2023-07-30T05:01:55;4.93;;;4.07;;
13704;SDS011;6924;52.122;9.952;2023-07-30T05:04:22;5.73;;;4.53;;
13704;SDS011;6924;52.122;9.952;2023-07-30T05:06:48;5.13;;;4.63;;
13704;SDS011;6924;52.122;9.952;2023-07-30T05:09:15;4.90;;;4.47;;
13704;SDS011;6924;52.122;9.952;2023-07-30T05:11:41;3.80;;;3.50;;
13704;SDS011;6924;52.122;9.952;2023-07-30T05:14:08;4.83;;;4.40;;
13704;SDS011;6924;52.122;9.952;2023-07-30T05:16:34;4.77;;;4.33;;
13704;SDS011;6924;52.122;9.952;2023-07-30T05:19:03;5.73;;;4.60;;
13704;SDS011;6924;52.122;9.952;2023-07-30T05:21:29;5.73;;;5.23;;
13704;SDS011;6924;52.122;9.952;2023-07-30T05:23:56;5.10;;;4.63;;
13704;SDS011;6924;52.122;9.952;2023-07-30T05:26:22;8.37;;;5.33;;
13704;SDS011;6924;52.122;9.952;2023-07-30T05:28:49;5.67;;;5.17;;
13704;SDS011;6924;52.122;9.952;2023-07-30T05:31:15;6.00;;;5.50;;
13704;SDS011;6924;52.122;9.952;2023-07-30T05:33:42;6.90;;;4.87;;
13704;SDS011;6924;52.122;9.952;2023-07-30T05:36:09;5.40;;;4.90;;
13704;SDS011;6924;52.122;9.952;2023-07-30T05:38:36;6.17;;;4.40;;
13704;SDS011;6924;52.122;9.952;2023-07-30T05:41:02;4.90;;;4.50;;
13704;SDS011;6924;52.122;9.952;2023-07-30T05:43:29;5.27;;;4.77;;
13704;SDS011;6924;52.122;9.952;2023-07-30T05:45:55;4.73;;;3.90;;
13704;SDS011;6924;52.122;9.952;2023-07-30T05:48:22;5.87;;;4.77;;
13704;SDS011;6924;52.122;9.952;2023-07-30T05:50:48;5.53;;;4.13;;
13704;SDS011;6924;52.122;9.952;2023-07-30T05:53:16;4.70;;;3.73;;
13704;SDS011;6924;52.122;9.952;2023-07-30T05:55:43;5.90;;;3.20;;
13704;SDS011;6924;52.122;9.952;2023-07-30T05:58:09;3.63;;;3.33;;
13704;SDS011;6924;52.122;9.952;2023-07-30T06:00:36;4.67;;;3.10;;
13704;SDS011;6924;52.122;9.952;2023-07-30T06:03:02;4.37;;;3.10;;
13704;SDS011;6924;52.122;9.952;2023-07-30T06:05:31;4.00;;;2.87;;
13704;SDS011;6924;52.122;9.952;2023-07-30T06:07:57;3.93;;;2.83;;
13704;SDS011;6924;52.122;9.952;2023-07-30T06:10:29;4.17;;;2.87;;
13704;SDS011;6924;52.122;9.952;2023-07-30T06:12:55;4.20;;;2.30;;
13704;SDS011;6924;52.122;9.952;2023-07-30T06:15:22;4.53;;;2.33;;
13704;SDS011;6924;52.122;9.952;2023-07-30T06:17:48;4.17;;;2.47;;
13704;SDS011;6924;52.122;9.952;2023-07-30T06:20:15;3.40;;;2.10;;
13704;SDS011;6924;52.122;9.952;2023-07-30T06:22:41;3.87;;;2.30;;
13704;SDS011;6924;52.122;9.952;2023-07-30T06:25:08;3.27;;;1.40;;
13704;SDS011;6924;52.122;9.952;2023-07-30T06:27:36;3.57;;;1.80;;
13704;SDS011;6924;52.122;9.952;2023-07-30T06:30:02;4.20;;;1.90;;
13704;SDS011;6924;52.122;9.952;2023-07-30T06:32:29;2.47;;;1.70;;
13704;SDS011;6924;52.122;9.952;2023-07-30T06:34:56;1.90;;;1.50;;
13704;SDS011;6924;52.122;9.952;2023-07-30T06:37:23;1.70;;;1.30;;
13704;SDS011;6924;52.122;9.952;2023-07-30T06:39:49;1.20;;;1.10;;
13704;SDS011;6924;52.122;9.952;2023-07-30T06:42:16;4.47;;;1.40;;
13704;SDS011;6924;52.122;9.952;2023-07-30T06:44:44;2.63;;;1.70;;
13704;SDS011;6924;52.122;9.952;2023-07-30T06:47:10;3.60;;;1.20;;
13704;SDS011;6924;52.122;9.952;2023-07-30T06:49:37;6.30;;;1.37;;
13704;SDS011;6924;52.122;9.952;2023-07-30T06:52:04;6.93;;;1.30;;
13704;SDS011;6924;52.122;9.952;2023-07-30T06:54:30;4.00;;;1.43;;
13704;SDS011;6924;52.122;9.952;2023-07-30T06:56:57;3.47;;;1.20;;
13704;SDS011;6924;52.122;9.952;2023-07-30T06:59:23;3.37;;;1.63;;
13704;SDS011;6924;52.122;9.952;2023-07-30T07:01:51;2.07;;;1.17;;
13704;SDS011;6924;52.122;9.952;2023-07-30T07:04:18;4.13;;;1.30;;
13704;SDS011;6924;52.122;9.952;2023-07-30T07:06:45;1.50;;;1.30;;
13704;SDS011;6924;52.122;9.952;2023-07-30T07:09:11;2.57;;;1.40;;
13704;SDS011;6924;52.122;9.952;2023-07-30T07:11:38;2.03;;;1.40;;
13704;SDS011;6924;52.122;9.952;2023-07-30T07:14:04;4.20;;;1.47;;
13704;SDS011;6924;52.122;9.952;2023-07-30T07:16:31;1.90;;;1.53;;
13704;SDS011;6924;52.122;9.952;2023-07-30T07:18:58;3.67;;;1.70;;
13704;SDS011;6924;52.122;9.952;2023-07-30T07:21:25;2.33;;;1.90;;
13704;SDS011;6924;52.122;9.952;2023-07-30T07:23:52;2.33;;;1.73;;
13704;SDS011;6924;52.122;9.952;2023-07-30T07:26:18;1.57;;;1.37;;
13704;SDS011;6924;52.122;9.952;2023-07-30T07:28:45;2.63;;;1.47;;
13704;SDS011;6924;52.122;9.952;2023-07-30T07:31:11;3.97;;;1.87;;
13704;SDS011;6924;52.122;9.952;2023-07-30T07:33:38;2.83;;;1.50;;
13704;SDS011;6924;52.122;9.952;2023-07-30T07:36:06;4.13;;;1.53;;
13704;SDS011;6924;52.122;9.952;2023-07-30T07:38:34;1.87;;;1.77;;
13704;SDS011;6924;52.122;9.952;2023-07-30T07:41:00;4.13;;;1.40;;
13704;SDS011;6924;52.122;9.952;2023-07-30T07:43:27;3.30;;;1.50;;
13704;SDS011;6924;52.122;9.952;2023-07-30T07:45:54;3.80;;;1.30;;
13704;SDS011;6924;52.122;9.952;2023-07-30T07:48:20;2.80;;;1.13;;
13704;SDS011;6924;52.122;9.952;2023-07-30T07:50:48;1.33;;;1.20;;
13704;SDS011;6924;52.122;9.952;2023-07-30T07:53:16;2.10;;;1.17;;
13704;SDS011;6924;52.122;9.952;2023-07-30T07:55:42;2.57;;;1.67;;
13704;SDS011;6924;52.122;9.952;2023-07-30T07:58:09;3.10;;;1.30;;
13704;SDS011;6924;52.122;9.952;2023-07-30T08:00:35;1.70;;;1.13;;
13704;SDS011;6924;52.122;9.952;2023-07-30T08:03:02;1.50;;;1.30;;
13704;SDS011;6924;52.122;9.952;2023-07-30T08:05:29;3.30;;;1.33;;
13704;SDS011;6924;52.122;9.952;2023-07-30T08:07:56;1.77;;;1.20;;
13704;SDS011;6924;52.122;9.952;2023-07-30T08:10:24;2.00;;;1.30;;
13704;SDS011;6924;52.122;9.952;2023-07-30T08:12:50;4.37;;;1.60;;
13704;SDS011;6924;52.122;9.952;2023-07-30T08:15:17;2.57;;;1.37;;
13704;SDS011;6924;52.122;9.952;2023-07-30T08:17:43;2.23;;;1.63;;
13704;SDS011;6924;52.122;9.952;2023-07-30T08:20:10;2.27;;;1.00;;
13704;SDS011;6924;52.122;9.952;2023-07-30T08:22:37;2.10;;;1.30;;
13704;SDS011;6924;52.122;9.952;2023-07-30T08:25:04;1.70;;;1.03;;
13704;SDS011;6924;52.122;9.952;2023-07-30T08:27:32;2.87;;;1.57;;
13704;SDS011;6924;52.122;9.952;2023-07-30T08:29:59;2.53;;;1.23;;
13704;SDS011;6924;52.122;9.952;2023-07-30T08:32:25;3.50;;;1.37;;
13704;SDS011;6924;52.122;9.952;2023-07-30T08:34:52;1.50;;;0.93;;
13704;SDS011;6924;52.122;9.952;2023-07-30T08:37:18;2.90;;;0.90;;
13704;SDS011;6924;52.122;9.952;2023-07-30T08:39:45;1.07;;;0.60;;
13704;SDS011;6924;52.122;9.952;2023-07-30T08:42:11;2.57;;;1.27;;
13704;SDS011;6924;52.122;9.952;2023-07-30T08:44:39;1.63;;;1.33;;
13704;SDS011;6924;52.122;9.952;2023-07-30T08:47:06;1.77;;;1.07;;
13704;SDS011;6924;52.122;9.952;2023-07-30T08:49:32;2.80;;;0.93;;
13704;SDS011;6924;52.122;9.952;2023-07-30T08:51:59;1.90;;;0.90;;
13704;SDS011;6924;52.122;9.952;2023-07-30T08:54:28;3.23;;;0.90;;
13704;SDS011;6924;52.122;9.952;2023-07-30T08:56:56;2.13;;;0.97;;
13704;SDS011;6924;52.122;9.952;2023-07-30T08:59:24;2.17;;;1.00;;
13704;SDS011;6924;52.122;9.952;2023-07-30T09:01:54;2.53;;;1.03;;
13704;SDS011;6924;52.122;9.952;2023-07-30T09:04:21;3.73;;;1.13;;
13704;SDS011;6924;52.122;9.952;2023-07-30T09:06:48;1.57;;;1.00;;
13704;SDS011;6924;52.122;9.952;2023-07-30T09:09:15;2.50;;;1.00;;
13704;SDS011;6924;52.122;9.952;2023-07-30T09:11:42;2.07;;;1.23;;
13704;SDS011;6924;52.122;9.952;2023-07-30T09:14:08;2.03;;;1.17;;
13704;SDS011;6924;52.122;9.952;2023-07-30T09:16:35;1.70;;;1.10;;
13704;SDS011;6924;52.122;9.952;2023-07-30T09:19:03;2.40;;;0.87;;
13704;SDS011;6924;52.122;9.952;2023-07-30T09:21:32;2.00;;;1.00;;
13704;SDS011;6924;52.122;9.952;2023-07-30T09:24:01;1.60;;;0.90;;
13704;SDS011;6924;52.122;9.952;2023-07-30T09:26:36;2.53;;;1.10;;
13704;SDS011;6924;52.122;9.952;2023-07-30T09:29:08;2.37;;;1.03;;
13704;SDS011;6924;52.122;9.952;2023-07-30T09:31:42;1.70;;;1.23;;
13704;SDS011;6924;52.122;9.952;2023-07-30T09:34:15;4.17;;;1.33;;
13704;SDS011;6924;52.122;9.952;2023-07-30T09:36:43;1.90;;;1.07;;
13704;SDS011;6924;52.122;9.952;2023-07-30T09:39:14;1.93;;;1.03;;
13704;SDS011;6924;52.122;9.952;2023-07-30T09:41:41;1.77;;;1.53;;
13704;SDS011;6924;52.122;9.952;2023-07-30T09:44:08;1.70;;;1.00;;
13704;SDS011;6924;52.122;9.952;2023-07-30T09:46:38;2.33;;;0.70;;
13704;SDS011;6924;52.122;9.952;2023-07-30T09:49:08;2.20;;;1.17;;
13704;SDS011;6924;52.122;9.952;2023-07-30T09:51:37;4.10;;;1.33;;
13704;SDS011;6924;52.122;9.952;2023-07-30T09:54:05;3.10;;;1.03;;
13704;SDS011;6924;52.122;9.952;2023-07-30T09:56:32;3.07;;;0.90;;
13704;SDS011;6924;52.122;9.952;2023-07-30T09:58:59;4.20;;;1.20;;
13704;SDS011;6924;52.122;9.952;2023-07-30T10:01:25;1.73;;;1.10;;
13704;SDS011;6924;52.122;9.952;2023-07-30T10:03:54;2.00;;;1.30;;
13704;SDS011;6924;52.122;9.952;2023-07-30T10:06:23;2.97;;;1.03;;
13704;SDS011;6924;52.122;9.952;2023-07-30T10:08:53;3.20;;;1.40;;
13704;SDS011;6924;52.122;9.952;2023-07-30T10:11:25;4.77;;;0.90;;
13704;SDS011;6924;52.122;9.952;2023-07-30T10:13:54;3.13;;;1.23;;
13704;SDS011;6924;52.122;9.952;2023-07-30T10:16:24;3.33;;;1.30;;
13704;SDS011;6924;52.122;9.952;2023-07-30T10:18:55;2.53;;;1.10;;
13704;SDS011;6924;52.122;9.952;2023-07-30T10:21:24;5.87;;;1.30;;
13704;SDS011;6924;52.122;9.952;2023-07-30T10:23:58;3.23;;;0.90;;
13704;SDS011;6924;52.122;9.952;2023-07-30T10:26:27;3.50;;;1.40;;
13704;SDS011;6924;52.122;9.952;2023-07-30T10:31:38;3.83;;;1.33;;
13704;SDS011;6924;52.122;9.952;2023-07-30T10:34:06;2.37;;;1.63;;
13704;SDS011;6924;52.122;9.952;2023-07-30T10:36:36;7.13;;;1.27;;
13704;SDS011;6924;52.122;9.952;2023-07-30T10:39:15;5.77;;;1.43;;
13704;SDS011;6924;52.122;9.952;2023-07-30T10:41:43;4.87;;;1.43;;
13704;SDS011;6924;52.122;9.952;2023-07-30T10:44:17;3.93;;;1.53;;
13704;SDS011;6924;52.122;9.952;2023-07-30T10:46:44;3.77;;;1.23;;
13704;SDS011;6924;52.122;9.952;2023-07-30T10:49:11;3.20;;;1.70;;
13704;SDS011;6924;52.122;9.952;2023-07-30T10:51:37;3.33;;;1.20;;
13704;SDS011;6924;52.122;9.952;2023-07-30T10:54:05;3.73;;;2.10;;
13704;SDS011;6924;52.122;9.952;2023-07-30T10:56:35;2.77;;;1.70;;
13704;SDS011;6924;52.122;9.952;2023-07-30T10:59:03;3.03;;;1.47;;
13704;SDS011;6924;52.122;9.952;2023-07-30T11:01:35;4.20;;;1.63;;
13704;SDS011;6924;52.122;9.952;2023-07-30T11:04:05;3.57;;;1.40;;
13704;SDS011;6924;52.122;9.952;2023-07-30T11:06:32;6.30;;;2.13;;
13704;SDS011;6924;52.122;9.952;2023-07-30T11:08:59;2.63;;;1.57;;
13704;SDS011;6924;52.122;9.952;2023-07-30T11:11:25;5.97;;;1.67;;
13704;SDS011;6924;52.122;9.952;2023-07-30T11:13:54;1.90;;;1.30;;
13704;SDS011;6924;52.122;9.952;2023-07-30T11:16:21;1.60;;;1.00;;
13704;SDS011;6924;52.122;9.952;2023-07-30T11:18:48;2.57;;;1.60;;
13704;SDS011;6924;52.122;9.952;2023-07-30T11:21:15;3.60;;;1.93;;
13704;SDS011;6924;52.122;9.952;2023-07-30T11:23:42;5.43;;;1.60;;
13704;SDS011;6924;52.122;9.952;2023-07-30T11:26:13;2.50;;;1.30;;
13704;SDS011;6924;52.122;9.952;2023-07-30T11:28:40;4.23;;;1.70;;
13704;SDS011;6924;52.122;9.952;2023-07-30T11:31:09;1.63;;;1.10;;
13704;SDS011;6924;52.122;9.952;2023-07-30T11:33:36;5.17;;;1.70;;
13704;SDS011;6924;52.122;9.952;2023-07-30T11:36:05;2.77;;;1.33;;
13704;SDS011;6924;52.122;9.952;2023-07-30T11:38:34;3.33;;;1.00;;
13704;SDS011;6924;52.122;9.952;2023-07-30T11:41:01;1.87;;;1.30;;
13704;SDS011;6924;52.122;9.952;2023-07-30T11:43:28;4.53;;;1.27;;
13704;SDS011;6924;52.122;9.952;2023-07-30T11:46:13;2.20;;;1.20;;
13704;SDS011;6924;52.122;9.952;2023-07-30T11:48:40;2.67;;;1.67;;
13704;SDS011;6924;52.122;9.952;2023-07-30T11:51:17;3.40;;;1.10;;
13704;SDS011;6924;52.122;9.952;2023-07-30T11:53:49;2.00;;;1.10;;
13704;SDS011;6924;52.122;9.952;2023-07-30T11:56:17;1.73;;;1.00;;
13704;SDS011;6924;52.122;9.952;2023-07-30T11:58:45;4.00;;;2.27;;
13704;SDS011;6924;52.122;9.952;2023-07-30T12:01:13;3.63;;;1.30;;
13704;SDS011;6924;52.122;9.952;2023-07-30T12:03:40;2.07;;;1.23;;
13704;SDS011;6924;52.122;9.952;2023-07-30T12:06:07;3.77;;;1.63;;
13704;SDS011;6924;52.122;9.952;2023-07-30T12:08:34;2.23;;;1.20;;
13704;SDS011;6924;52.122;9.952;2023-07-30T12:11:02;4.23;;;1.60;;
13704;SDS011;6924;52.122;9.952;2023-07-30T12:13:29;1.97;;;1.37;;
13704;SDS011;6924;52.122;9.952;2023-07-30T12:15:56;2.40;;;1.77;;
13704;SDS011;6924;52.122;9.952;2023-07-30T12:18:25;2.93;;;1.67;;
13704;SDS011;6924;52.122;9.952;2023-07-30T12:20:53;3.97;;;2.23;;
13704;SDS011;6924;52.122;9.952;2023-07-30T12:23:19;2.60;;;2.00;;
13704;SDS011;6924;52.122;9.952;2023-07-30T12:25:46;4.60;;;2.23;;
13704;SDS011;6924;52.122;9.952;2023-07-30T12:28:13;1.80;;;1.70;;
13704;SDS011;6924;52.122;9.952;2023-07-30T12:30:40;3.43;;;2.40;;
13704;SDS011;6924;52.122;9.952;2023-07-30T12:33:06;4.20;;;2.10;;
13704;SDS011;6924;52.122;9.952;2023-07-30T12:35:34;4.00;;;2.20;;
13704;SDS011;6924;52.122;9.952;2023-07-30T12:38:00;2.33;;;2.00;;
13704;SDS011;6924;52.122;9.952;2023-07-30T12:40:27;2.80;;;2.50;;
13704;SDS011;6924;52.122;9.952;2023-07-30T12:42:54;2.30;;;1.77;;
13704;SDS011;6924;52.122;9.952;2023-07-30T12:45:21;3.37;;;2.40;;
13704;SDS011;6924;52.122;9.952;2023-07-30T12:47:48;2.57;;;2.37;;
13704;SDS011;6924;52.122;9.952;2023-07-30T12:50:14;4.80;;;2.40;;
13704;SDS011;6924;52.122;9.952;2023-07-30T12:52:42;3.10;;;2.80;;
13704;SDS011;6924;52.122;9.952;2023-07-30T12:55:09;3.83;;;2.73;;
13704;SDS011;6924;52.122;9.952;2023-07-30T12:57:35;3.40;;;3.10;;
13704;SDS011;6924;52.122;9.952;2023-07-30T13:00:02;3.20;;;2.43;;
13704;SDS011;6924;52.122;9.952;2023-07-30T13:02:29;3.53;;;2.40;;
13704;SDS011;6924;52.122;9.952;2023-07-30T13:04:58;3.27;;;2.20;;
13704;SDS011;6924;52.122;9.952;2023-07-30T13:07:25;2.33;;;2.10;;
13704;SDS011;6924;52.122;9.952;2023-07-30T13:10:02;8.13;;;2.67;;
13704;SDS011;6924;52.122;9.952;2023-07-30T13:12:30;3.30;;;2.07;;
13704;SDS011;6924;52.122;9.952;2023-07-30T13:14:56;3.33;;;2.70;;
13704;SDS011;6924;52.122;9.952;2023-07-30T13:17:23;4.13;;;2.37;;
13704;SDS011;6924;52.122;9.952;2023-07-30T13:19:49;3.07;;;1.90;;
13704;SDS011;6924;52.122;9.952;2023-07-30T13:22:16;4.57;;;2.33;;
13704;SDS011;6924;52.122;9.952;2023-07-30T13:24:42;3.33;;;1.93;;
13704;SDS011;6924;52.122;9.952;2023-07-30T13:27:10;4.97;;;2.33;;
13704;SDS011;6924;52.122;9.952;2023-07-30T13:29:37;3.43;;;2.50;;
13704;SDS011;6924;52.122;9.952;2023-07-30T13:32:03;2.87;;;2.07;;
13704;SDS011;6924;52.122;9.952;2023-07-30T13:34:31;2.87;;;2.63;;
13704;SDS011;6924;52.122;9.952;2023-07-30T13:36:57;4.93;;;2.30;;
13704;SDS011;6924;52.122;9.952;2023-07-30T13:39:24;3.20;;;2.33;;
13704;SDS011;6924;52.122;9.952;2023-07-30T13:41:51;6.07;;;2.10;;
13704;SDS011;6924;52.122;9.952;2023-07-30T13:44:19;2.23;;;1.67;;
13704;SDS011;6924;52.122;9.952;2023-07-30T13:46:45;6.60;;;2.03;;
13704;SDS011;6924;52.122;9.952;2023-07-30T13:49:12;2.70;;;1.77;;
13704;SDS011;6924;52.122;9.952;2023-07-30T13:51:38;2.33;;;1.57;;
13704;SDS011;6924;52.122;9.952;2023-07-30T13:54:05;3.00;;;1.80;;
13704;SDS011;6924;52.122;9.952;2023-07-30T13:56:33;2.17;;;1.50;;
13704;SDS011;6924;52.122;9.952;2023-07-30T13:59:00;2.50;;;1.80;;
13704;SDS011;6924;52.122;9.952;2023-07-30T14:01:27;3.87;;;1.90;;
13704;SDS011;6924;52.122;9.952;2023-07-30T14:03:54;7.23;;;2.43;;
13704;SDS011;6924;52.122;9.952;2023-07-30T14:06:21;3.33;;;2.00;;
13704;SDS011;6924;52.122;9.952;2023-07-30T14:08:48;3.50;;;1.80;;
13704;SDS011;6924;52.122;9.952;2023-07-30T14:11:14;4.10;;;1.73;;
13704;SDS011;6924;52.122;9.952;2023-07-30T14:13:41;2.47;;;1.80;;
13704;SDS011;6924;52.122;9.952;2023-07-30T14:16:07;4.57;;;2.30;;
13704;SDS011;6924;52.122;9.952;2023-07-30T14:18:36;2.93;;;1.70;;
13704;SDS011;6924;52.122;9.952;2023-07-30T14:21:04;2.40;;;1.60;;
13704;SDS011;6924;52.122;9.952;2023-07-30T14:23:30;3.03;;;1.83;;
13704;SDS011;6924;52.122;9.952;2023-07-30T14:25:57;2.27;;;1.40;;
13704;SDS011;6924;52.122;9.952;2023-07-30T14:28:23;3.07;;;1.80;;
13704;SDS011;6924;52.122;9.952;2023-07-30T14:30:50;4.73;;;1.70;;
13704;SDS011;6924;52.122;9.952;2023-07-30T14:33:16;2.87;;;1.90;;
13704;SDS011;6924;52.122;9.952;2023-07-30T14:35:44;2.17;;;1.53;;
13704;SDS011;6924;52.122;9.952;2023-07-30T14:38:11;2.73;;;1.70;;
13704;SDS011;6924;52.122;9.952;2023-07-30T14:40:37;2.57;;;1.77;;
13704;SDS011;6924;52.122;9.952;2023-07-30T14:43:04;2.17;;;1.63;;
13704;SDS011;6924;52.122;9.952;2023-07-30T14:45:31;3.20;;;1.50;;
13704;SDS011;6924;52.122;9.952;2023-07-30T14:47:57;3.53;;;1.60;;
13704;SDS011;6924;52.122;9.952;2023-07-30T14:50:24;2.00;;;1.30;;
13704;SDS011;6924;52.122;9.952;2023-07-30T14:52:51;4.70;;;0.97;;
13704;SDS011;6924;52.122;9.952;2023-07-30T14:55:18;4.53;;;1.10;;
13704;SDS011;6924;52.122;9.952;2023-07-30T14:57:45;1.73;;;1.10;;
13704;SDS011;6924;52.122;9.952;2023-07-30T15:00:11;2.30;;;1.10;;
13704;SDS011;6924;52.122;9.952;2023-07-30T15:02:42;3.90;;;1.00;;